createdAt,value
2017-08-25T00:02:27.141Z,4.32
2017-08-25T00:04:56.386Z,4.20
2017-08-25T00:07:25.628Z,4.75
2017-08-25T00:09:54.880Z,4.85
2017-08-25T00:12:24.128Z,4.00
2017-08-25T00:14:53.384Z,4.10
2017-08-25T00:17:22.628Z,3.83
2017-08-25T00:19:51.893Z,4.70
2017-08-25T00:22:21.140Z,4.20
2017-08-25T00:24:50.389Z,3.80
2017-08-25T00:27:19.641Z,4.53
2017-08-25T00:29:48.883Z,4.25
2017-08-25T00:32:18.131Z,3.92
2017-08-25T00:34:47.390Z,5.10
2017-08-25T00:37:16.635Z,4.57
2017-08-25T00:39:45.891Z,4.68
2017-08-25T00:42:15.132Z,4.30
2017-08-25T00:44:44.393Z,5.00
2017-08-25T00:47:13.636Z,4.50
2017-08-25T00:49:42.909Z,4.12
2017-08-25T00:52:12.156Z,3.97
2017-08-25T00:54:41.412Z,3.90
2017-08-25T00:57:10.661Z,4.05
2017-08-25T00:59:39.916Z,4.35
2017-08-25T01:02:09.169Z,3.97
2017-08-25T01:04:38.428Z,4.45
2017-08-25T01:07:07.684Z,4.40
2017-08-25T01:09:36.932Z,5.03
2017-08-25T01:12:06.189Z,4.90
2017-08-25T01:14:35.436Z,4.82
2017-08-25T01:17:04.684Z,4.85
2017-08-25T01:19:33.936Z,4.82
2017-08-25T01:22:03.189Z,5.75
2017-08-25T01:24:32.447Z,5.20
2017-08-25T01:27:01.697Z,5.05
2017-08-25T01:29:30.944Z,5.57
2017-08-25T01:32:00.197Z,5.93
2017-08-25T01:34:29.452Z,5.15
2017-08-25T01:36:58.710Z,4.72
2017-08-25T01:39:27.949Z,5.32
2017-08-25T01:41:57.200Z,5.07
2017-08-25T01:44:26.460Z,6.53
2017-08-25T01:46:55.717Z,5.10
2017-08-25T01:49:24.961Z,5.20
2017-08-25T01:51:54.209Z,5.18
2017-08-25T01:54:23.457Z,4.53
2017-08-25T01:56:52.721Z,5.65
2017-08-25T01:59:22.012Z,5.10
2017-08-25T02:01:51.261Z,5.45
2017-08-25T02:04:20.508Z,5.87
2017-08-25T02:06:49.760Z,5.70
2017-08-25T02:09:19.013Z,5.18
2017-08-25T02:11:48.257Z,5.90
2017-08-25T02:14:17.508Z,6.05
2017-08-25T02:16:46.757Z,5.82
2017-08-25T02:19:16.014Z,5.43
2017-08-25T02:21:50.748Z,6.10
2017-08-25T02:24:19.996Z,5.12
2017-08-25T02:26:49.248Z,6.60
2017-08-25T02:29:18.507Z,6.57
2017-08-25T02:31:47.747Z,5.95
2017-08-25T02:34:16.998Z,5.85
2017-08-25T02:36:46.246Z,6.10
2017-08-25T02:39:15.504Z,8.02
2017-08-25T02:41:44.756Z,6.37
2017-08-25T02:44:14.013Z,7.35
2017-08-25T02:46:43.265Z,7.10
2017-08-25T02:49:12.526Z,8.02
2017-08-25T02:51:41.780Z,7.32
2017-08-25T02:54:11.040Z,8.27
2017-08-25T02:56:40.293Z,7.65
2017-08-25T02:59:09.544Z,7.10
2017-08-25T03:01:38.842Z,7.28
2017-08-25T03:04:08.104Z,7.72
2017-08-25T03:06:37.361Z,7.40
2017-08-25T03:09:06.627Z,8.43
2017-08-25T03:11:35.903Z,7.70
2017-08-25T03:14:05.929Z,8.35
2017-08-25T03:16:35.180Z,8.65
2017-08-25T03:19:04.524Z,8.75
2017-08-25T03:21:33.778Z,10.07
2017-08-25T03:24:03.068Z,10.18
2017-08-25T03:26:32.319Z,9.40
2017-08-25T03:29:01.576Z,10.70
2017-08-25T03:31:30.850Z,10.82
2017-08-25T03:34:00.092Z,9.93
2017-08-25T03:36:29.359Z,9.40
2017-08-25T03:38:58.620Z,10.15
2017-08-25T03:41:27.873Z,9.23
2017-08-25T03:43:57.134Z,9.27
2017-08-25T03:46:26.432Z,10.25
2017-08-25T03:48:55.660Z,9.80
2017-08-25T03:51:24.920Z,9.25
2017-08-25T03:53:58.011Z,10.60
2017-08-25T03:56:27.261Z,9.38
2017-08-25T03:58:56.517Z,9.48
2017-08-25T04:01:25.781Z,9.35
2017-08-25T04:03:55.034Z,9.07
2017-08-25T04:06:24.284Z,9.38
2017-08-25T04:08:53.550Z,9.50
2017-08-25T04:11:22.797Z,9.38
2017-08-25T04:13:52.047Z,8.52
2017-08-25T04:16:21.304Z,9.13
2017-08-25T04:18:50.650Z,8.13
2017-08-25T04:21:19.895Z,8.73
2017-08-25T04:23:49.152Z,8.30
2017-08-25T04:26:18.673Z,8.23
2017-08-25T04:28:47.925Z,8.07
2017-08-25T04:31:17.176Z,8.82
2017-08-25T04:33:46.438Z,7.93
2017-08-25T04:36:15.700Z,7.90
2017-08-25T04:38:44.949Z,8.35
2017-08-25T04:41:17.748Z,8.10
2017-08-25T04:43:46.997Z,7.68
2017-08-25T04:46:16.252Z,8.95
2017-08-25T04:48:45.501Z,8.60
2017-08-25T04:51:14.744Z,7.82
2017-08-25T04:53:44.015Z,8.45
2017-08-25T04:56:13.262Z,8.27
2017-08-25T04:58:42.512Z,7.65
2017-08-25T05:01:11.764Z,7.00
2017-08-25T05:03:41.020Z,7.68
2017-08-25T05:06:10.265Z,8.05
2017-08-25T05:08:39.517Z,7.93
2017-08-25T05:11:08.773Z,8.32
2017-08-25T05:13:38.023Z,8.35
2017-08-25T05:16:07.271Z,8.43
2017-08-25T05:18:36.528Z,7.55
2017-08-25T05:21:05.792Z,7.72
2017-08-25T05:23:35.043Z,8.65
2017-08-25T05:26:04.293Z,9.45
2017-08-25T05:28:33.553Z,9.05
2017-08-25T05:31:02.812Z,8.10
2017-08-25T05:33:32.065Z,8.95
2017-08-25T05:36:01.334Z,8.77
2017-08-25T05:38:30.585Z,7.93
2017-08-25T05:40:59.831Z,8.00
2017-08-25T05:43:29.096Z,7.60
2017-08-25T05:45:58.345Z,7.82
2017-08-25T05:48:27.604Z,7.28
2017-08-25T05:50:56.863Z,8.45
2017-08-25T05:53:26.121Z,7.95
2017-08-25T05:55:55.384Z,7.45
2017-08-25T05:58:24.640Z,6.87
2017-08-25T06:00:53.900Z,7.32
2017-08-25T06:03:23.149Z,8.27
2017-08-25T06:05:52.393Z,7.12
2017-08-25T06:08:21.648Z,7.62
2017-08-25T06:10:50.918Z,6.78
2017-08-25T06:13:20.164Z,6.87
2017-08-25T06:15:49.416Z,6.60
2017-08-25T06:18:18.676Z,6.05
2017-08-25T06:20:47.922Z,6.72
2017-08-25T06:23:17.176Z,6.60
2017-08-25T06:25:48.376Z,6.95
2017-08-25T06:28:17.608Z,6.60
2017-08-25T06:30:46.862Z,6.45
2017-08-25T06:33:16.112Z,5.90
2017-08-25T06:35:45.367Z,6.28
2017-08-25T06:38:14.614Z,7.32
2017-08-25T06:40:43.861Z,6.05
2017-08-25T06:43:13.224Z,7.03
2017-08-25T06:45:42.483Z,6.60
2017-08-25T06:48:11.724Z,7.07
2017-08-25T06:50:40.982Z,7.05
2017-08-25T06:53:10.224Z,7.18
2017-08-25T06:55:39.477Z,6.28
2017-08-25T06:58:08.734Z,5.75
2017-08-25T07:00:37.980Z,6.78
2017-08-25T07:03:07.229Z,6.90
2017-08-25T07:05:36.492Z,6.57
2017-08-25T07:08:05.741Z,6.18
2017-08-25T07:10:35.003Z,5.57
2017-08-25T07:13:04.249Z,6.00
2017-08-25T07:15:33.522Z,6.05
2017-08-25T07:18:02.835Z,7.07
2017-08-25T07:20:32.080Z,6.93
2017-08-25T07:23:01.329Z,6.50
2017-08-25T07:25:30.584Z,7.18
2017-08-25T07:27:59.847Z,7.22
2017-08-25T07:30:29.103Z,7.40
2017-08-25T07:32:58.352Z,7.25
2017-08-25T07:35:27.600Z,7.47
2017-08-25T07:37:56.877Z,6.82
2017-08-25T07:40:26.121Z,6.65
2017-08-25T07:42:55.364Z,7.20
2017-08-25T07:45:24.628Z,6.35
2017-08-25T07:47:53.902Z,6.85
2017-08-25T07:50:23.185Z,6.80
2017-08-25T07:52:53.162Z,6.70
2017-08-25T07:55:22.384Z,6.68
2017-08-25T07:57:51.643Z,5.80
2017-08-25T08:00:20.893Z,6.95
2017-08-25T08:02:50.153Z,6.72
2017-08-25T08:05:19.415Z,6.35
2017-08-25T08:07:48.672Z,5.78
2017-08-25T08:10:17.929Z,6.57
2017-08-25T08:12:47.178Z,5.97
2017-08-25T08:15:16.460Z,6.57
2017-08-25T08:17:45.752Z,5.35
2017-08-25T08:20:14.996Z,5.97
2017-08-25T08:22:44.259Z,6.50
2017-08-25T08:25:13.529Z,6.57
2017-08-25T08:27:42.883Z,5.70
2017-08-25T08:30:12.141Z,5.40
2017-08-25T08:32:41.388Z,5.37
2017-08-25T08:35:10.661Z,5.57
2017-08-25T08:37:39.908Z,5.65
2017-08-25T08:40:09.204Z,5.47
2017-08-25T08:42:38.455Z,4.62
2017-08-25T08:45:07.716Z,5.75
2017-08-25T08:47:36.985Z,5.10
2017-08-25T08:50:06.281Z,5.10
2017-08-25T08:52:35.517Z,5.22
2017-08-25T08:55:04.795Z,5.62
2017-08-25T08:57:34.043Z,5.03
2017-08-25T09:00:03.318Z,4.72
2017-08-25T09:02:34.157Z,5.50
2017-08-25T09:05:03.545Z,5.05
2017-08-25T09:07:32.788Z,5.15
2017-08-25T09:10:02.045Z,5.22
2017-08-25T09:12:31.297Z,5.43
2017-08-25T09:15:00.554Z,5.70
2017-08-25T09:17:29.808Z,5.05
2017-08-25T09:19:59.091Z,5.05
2017-08-25T09:22:29.164Z,5.72
2017-08-25T09:24:58.440Z,5.20
2017-08-25T09:27:27.730Z,5.80
2017-08-25T09:29:57.759Z,5.10
2017-08-25T09:32:27.032Z,5.80
2017-08-25T09:34:56.296Z,5.43
2017-08-25T09:37:25.560Z,4.97
2017-08-25T09:39:55.704Z,5.45
2017-08-25T09:42:25.761Z,5.32
2017-08-25T09:44:55.049Z,4.95
2017-08-25T09:47:24.300Z,4.70
2017-08-25T09:49:53.560Z,4.65
2017-08-25T09:52:22.875Z,5.25
2017-08-25T09:54:52.152Z,6.00
2017-08-25T09:57:21.416Z,5.40
2017-08-25T09:59:50.675Z,4.90
2017-08-25T10:02:19.988Z,5.78
2017-08-25T10:04:49.244Z,5.90
2017-08-25T10:07:18.513Z,5.82
2017-08-25T10:09:48.800Z,6.07
2017-08-25T10:12:18.098Z,5.20
2017-08-25T10:14:47.352Z,6.28
2017-08-25T10:17:16.611Z,6.07
2017-08-25T10:19:45.889Z,5.62
2017-08-25T10:22:15.160Z,6.78
2017-08-25T10:24:44.414Z,6.90
2017-08-25T10:27:14.452Z,6.25
2017-08-25T10:29:43.720Z,6.45
2017-08-25T10:32:12.981Z,6.20
2017-08-25T10:35:00.006Z,6.50
2017-08-25T10:37:47.032Z,6.47
2017-08-25T10:40:34.008Z,6.32
2017-08-25T10:43:20.915Z,6.20
2017-08-25T10:45:50.181Z,6.72
2017-08-25T10:48:19.453Z,6.77
2017-08-25T10:50:48.711Z,6.20
2017-08-25T10:53:17.949Z,6.70
2017-08-25T10:55:47.203Z,6.03
2017-08-25T10:58:16.452Z,6.57
2017-08-25T11:00:45.708Z,7.63
2017-08-25T11:03:14.977Z,7.00
2017-08-25T11:05:44.250Z,6.60
2017-08-25T11:08:13.493Z,7.27
2017-08-25T11:10:42.748Z,6.80
2017-08-25T11:13:12.032Z,6.60
2017-08-25T11:15:41.302Z,6.77
2017-08-25T11:18:10.561Z,7.03
2017-08-25T11:20:39.848Z,7.27
2017-08-25T11:23:09.085Z,7.20
2017-08-25T11:25:38.332Z,7.00
2017-08-25T11:28:07.584Z,6.60
2017-08-25T11:30:36.841Z,6.70
2017-08-25T11:33:06.088Z,8.00
2017-08-25T11:35:35.356Z,6.70
2017-08-25T11:38:04.600Z,7.60
2017-08-25T11:40:33.874Z,7.23
2017-08-25T11:43:03.123Z,6.40
2017-08-25T11:45:32.373Z,6.77
2017-08-25T11:48:01.640Z,6.90
2017-08-25T11:50:30.867Z,6.70
2017-08-25T11:53:00.124Z,7.13
2017-08-25T11:55:29.372Z,9.33
2017-08-25T11:57:58.633Z,8.23
2017-08-25T12:00:27.875Z,7.47
2017-08-25T12:02:57.155Z,7.67
2017-08-25T12:05:26.396Z,6.77
2017-08-25T12:07:55.641Z,7.17
2017-08-25T12:10:24.917Z,8.07
2017-08-25T12:12:54.160Z,7.70
2017-08-25T12:15:23.404Z,7.30
2017-08-25T12:17:52.656Z,6.63
2017-08-25T12:20:21.900Z,6.80
2017-08-25T12:22:51.153Z,7.70
2017-08-25T12:25:20.408Z,7.20
2017-08-25T12:27:49.657Z,7.70
2017-08-25T12:30:18.932Z,7.30
2017-08-25T12:32:48.163Z,7.10
2017-08-25T12:35:17.416Z,7.80
2017-08-25T12:37:46.675Z,7.67
2017-08-25T12:40:15.928Z,7.20
2017-08-25T12:42:45.184Z,7.40
2017-08-25T12:45:14.428Z,8.00
2017-08-25T12:47:43.721Z,7.70
2017-08-25T12:50:12.974Z,7.27
2017-08-25T12:52:42.233Z,7.40
2017-08-25T12:55:11.476Z,6.60
2017-08-25T12:57:40.735Z,7.63
2017-08-25T13:00:09.984Z,7.73
2017-08-25T13:02:39.274Z,7.40
2017-08-25T13:05:08.528Z,7.43
2017-08-25T13:07:37.780Z,7.07
2017-08-25T13:10:07.029Z,7.33
2017-08-25T13:12:36.276Z,8.33
2017-08-25T13:15:05.524Z,7.97
2017-08-25T13:17:34.775Z,7.60
2017-08-25T13:20:04.808Z,7.53
2017-08-25T13:22:34.060Z,7.50
2017-08-25T13:25:03.324Z,6.77
2017-08-25T13:27:32.559Z,7.77
2017-08-25T13:30:01.827Z,7.87
2017-08-25T13:32:31.080Z,6.97
2017-08-25T13:35:00.332Z,7.30
2017-08-25T13:37:29.584Z,7.43
2017-08-25T13:39:58.833Z,7.47
2017-08-25T13:42:28.084Z,7.80
2017-08-25T13:44:57.336Z,7.00
2017-08-25T13:47:26.581Z,7.40
2017-08-25T13:49:55.832Z,8.00
2017-08-25T13:52:25.085Z,7.47
2017-08-25T13:54:54.332Z,7.97
2017-08-25T13:57:23.604Z,7.83
2017-08-25T13:59:52.876Z,7.27
2017-08-25T14:02:22.125Z,7.83
2017-08-25T14:04:51.392Z,7.00
2017-08-25T14:07:20.636Z,7.50
2017-08-25T14:09:49.896Z,8.17
2017-08-25T14:12:19.143Z,7.03
2017-08-25T14:14:48.392Z,8.87
2017-08-25T14:17:17.656Z,7.97
2017-08-25T14:19:46.901Z,6.50
2017-08-25T14:22:16.936Z,7.57
2017-08-25T14:24:46.180Z,7.37
2017-08-25T14:27:31.654Z,7.07
2017-08-25T14:30:12.214Z,7.83
2017-08-25T14:32:51.925Z,6.60
2017-08-25T14:35:23.685Z,8.13
2017-08-25T14:37:52.937Z,7.00
2017-08-25T14:40:22.193Z,7.40
2017-08-25T14:42:51.665Z,7.53
2017-08-25T14:45:20.912Z,7.60
2017-08-25T14:47:50.168Z,6.87
2017-08-25T14:50:19.444Z,8.40
2017-08-25T14:52:48.704Z,7.47
2017-08-25T14:55:18.173Z,7.53
2017-08-25T14:57:47.432Z,7.13
2017-08-25T15:00:16.704Z,7.20
2017-08-25T15:02:46.824Z,7.80
2017-08-25T15:05:16.162Z,6.90
2017-08-25T15:07:45.485Z,7.27
2017-08-25T15:10:14.745Z,7.13
2017-08-25T15:12:44.000Z,6.77
2017-08-25T15:15:13.259Z,8.33
2017-08-25T15:17:42.512Z,7.03
2017-08-25T15:20:11.766Z,7.70
2017-08-25T15:22:41.030Z,7.40
2017-08-25T15:25:10.277Z,7.83
2017-08-25T15:27:40.114Z,7.80
2017-08-25T15:30:11.157Z,8.20
2017-08-25T15:32:41.196Z,7.50
2017-08-25T15:35:10.432Z,7.67
2017-08-25T15:37:39.692Z,8.73
2017-08-25T15:40:08.965Z,7.83
2017-08-25T15:42:38.224Z,8.50
2017-08-25T15:45:07.480Z,7.87
2017-08-25T15:47:36.763Z,7.50
2017-08-25T15:50:06.060Z,7.90
2017-08-25T15:52:35.279Z,7.60
2017-08-25T15:55:04.565Z,7.33
2017-08-25T15:57:33.823Z,6.90
2017-08-25T16:00:03.081Z,7.40
2017-08-25T16:02:32.328Z,7.80
2017-08-25T16:05:02.396Z,7.63
2017-08-25T16:07:31.643Z,7.87
2017-08-25T16:10:01.026Z,6.80
2017-08-25T16:12:30.287Z,7.23
2017-08-25T16:14:59.540Z,7.57
2017-08-25T16:17:28.795Z,7.73
2017-08-25T16:19:58.154Z,7.50
2017-08-25T16:22:27.428Z,8.70
2017-08-25T16:24:56.712Z,7.90
2017-08-25T16:27:25.973Z,8.13
2017-08-25T16:29:55.249Z,7.80
2017-08-25T16:32:24.629Z,8.17
2017-08-25T16:34:53.889Z,7.83
2017-08-25T16:37:23.149Z,7.60
2017-08-25T16:39:52.420Z,8.97
2017-08-25T16:42:21.673Z,9.40
2017-08-25T16:44:50.933Z,8.20
2017-08-25T16:47:20.191Z,8.93
2017-08-25T16:49:49.480Z,9.50
2017-08-25T16:52:18.733Z,9.47
2017-08-25T16:54:48.139Z,9.32
2017-08-25T16:57:17.396Z,9.63
2017-08-25T16:59:46.661Z,8.43
2017-08-25T17:02:16.093Z,8.57
2017-08-25T17:04:45.344Z,8.03
2017-08-25T17:07:14.697Z,8.20
2017-08-25T17:09:43.954Z,8.43
2017-08-25T17:12:13.212Z,8.60
2017-08-25T17:14:42.466Z,9.23
2017-08-25T17:17:11.743Z,8.97
2017-08-25T17:19:41.005Z,8.13
2017-08-25T17:22:10.261Z,9.00
2017-08-25T17:24:39.512Z,8.40
2017-08-25T17:27:09.668Z,8.27
2017-08-25T17:29:38.924Z,8.73
2017-08-25T17:32:08.218Z,9.07
2017-08-25T17:34:37.486Z,9.13
2017-08-25T17:37:06.846Z,8.70
2017-08-25T17:39:36.071Z,9.30
2017-08-25T17:42:06.125Z,10.27
2017-08-25T17:44:35.928Z,9.27
2017-08-25T17:47:06.020Z,10.73
2017-08-25T17:49:35.893Z,9.50
2017-08-25T17:52:05.241Z,11.80
2017-08-25T17:54:34.489Z,9.23
2017-08-25T17:57:04.200Z,9.10
2017-08-25T17:59:33.460Z,9.70
2017-08-25T18:02:02.773Z,8.90
2017-08-25T18:04:32.064Z,9.20
2017-08-25T18:07:01.336Z,9.27
2017-08-25T18:09:30.588Z,9.10
2017-08-25T18:12:00.768Z,9.80
2017-08-25T18:14:30.033Z,11.67
2017-08-25T18:16:59.887Z,9.30
2017-08-25T18:19:29.158Z,9.27
2017-08-25T18:21:58.412Z,8.80
2017-08-25T18:24:27.672Z,8.93
2017-08-25T18:26:57.036Z,9.43
2017-08-25T18:29:26.296Z,8.83
2017-08-25T18:31:55.553Z,9.87
2017-08-25T18:34:24.818Z,9.00
2017-08-25T18:36:54.073Z,9.20
2017-08-25T18:39:23.325Z,10.03
2017-08-25T18:41:52.593Z,9.13
2017-08-25T18:44:21.878Z,10.30
2017-08-25T18:46:51.136Z,11.25
2017-08-25T18:49:20.416Z,10.10
2017-08-25T18:51:49.697Z,10.65
2017-08-25T18:54:18.990Z,10.52
2017-08-25T18:56:48.259Z,10.93
2017-08-25T18:59:17.529Z,12.10
2017-08-25T19:01:46.792Z,13.00
2017-08-25T19:04:16.064Z,11.70
2017-08-25T19:06:45.337Z,10.87
2017-08-25T19:09:14.612Z,11.75
2017-08-25T19:11:43.878Z,12.05
2017-08-25T19:14:13.152Z,12.05
2017-08-25T19:16:42.416Z,16.53
2017-08-25T19:19:11.709Z,17.95
2017-08-25T19:21:40.971Z,16.83
2017-08-25T19:24:10.241Z,25.75
2017-08-25T19:26:41.023Z,26.87
2017-08-25T19:29:10.284Z,26.15
2017-08-25T19:31:39.556Z,24.42
2017-08-25T19:34:08.826Z,22.20
2017-08-25T19:36:38.088Z,22.75
2017-08-25T19:39:07.355Z,18.48
2017-08-25T19:41:36.626Z,18.85
2017-08-25T19:44:05.888Z,17.08
2017-08-25T19:46:35.158Z,17.50
2017-08-25T19:49:04.424Z,16.40
2017-08-25T19:51:33.696Z,14.98
2017-08-25T19:54:02.955Z,16.52
2017-08-25T19:56:32.268Z,14.93
2017-08-25T19:59:01.529Z,15.55
2017-08-25T20:01:30.801Z,14.55
2017-08-25T20:04:00.060Z,15.77
2017-08-25T20:06:29.330Z,14.77
2017-08-25T20:08:58.593Z,13.18
2017-08-25T20:11:27.866Z,13.90
2017-08-25T20:13:57.216Z,13.88
2017-08-25T20:16:26.500Z,13.35
2017-08-25T20:18:55.760Z,13.13
2017-08-25T20:21:25.028Z,13.77
2017-08-25T20:23:54.289Z,13.38
2017-08-25T20:26:23.552Z,14.00
2017-08-25T20:28:53.032Z,14.70
2017-08-25T20:31:22.315Z,14.02
2017-08-25T20:33:51.573Z,14.05
2017-08-25T20:36:20.837Z,13.05
2017-08-25T20:38:50.128Z,13.35
2017-08-25T20:41:20.164Z,13.50
2017-08-25T20:43:49.433Z,13.00
2017-08-25T20:46:19.461Z,12.75
2017-08-25T20:48:48.732Z,14.15
2017-08-25T20:51:17.998Z,14.70
2017-08-25T20:53:47.260Z,12.90
2017-08-25T20:56:16.524Z,12.90
2017-08-25T20:58:45.773Z,14.07
2017-08-25T21:01:15.032Z,12.98
2017-08-25T21:03:44.292Z,13.70
2017-08-25T21:06:13.548Z,12.73
2017-08-25T21:08:42.846Z,11.80
2017-08-25T21:11:12.109Z,12.30
2017-08-25T21:13:41.381Z,11.27
2017-08-25T21:16:10.633Z,11.88
2017-08-25T21:18:39.910Z,10.43
2017-08-25T21:21:09.160Z,11.43
2017-08-25T21:23:39.197Z,11.43
2017-08-25T21:26:08.656Z,11.35
2017-08-25T21:28:37.915Z,11.98
2017-08-25T21:31:07.369Z,10.38
2017-08-25T21:33:36.643Z,11.68
2017-08-25T21:36:05.897Z,12.02
2017-08-25T21:38:35.181Z,12.60
2017-08-25T21:41:04.440Z,11.52
2017-08-25T21:43:33.712Z,11.98
2017-08-25T21:46:02.973Z,12.95
2017-08-25T21:48:32.224Z,12.30
2017-08-25T21:51:01.491Z,12.40
2017-08-25T21:53:30.748Z,12.18
2017-08-25T21:56:00.016Z,11.40
2017-08-25T21:58:29.280Z,10.75
2017-08-25T22:00:58.552Z,12.55
2017-08-25T22:03:27.804Z,11.88
2017-08-25T22:05:57.068Z,11.35
2017-08-25T22:08:26.338Z,11.98
2017-08-25T22:10:55.604Z,11.88
2017-08-25T22:13:24.854Z,13.10
2017-08-25T22:15:54.121Z,11.27
2017-08-25T22:18:23.381Z,12.32
2017-08-25T22:20:52.652Z,12.05
2017-08-25T22:23:21.918Z,12.57
2017-08-25T22:25:51.180Z,10.95
2017-08-25T22:28:20.448Z,12.27
2017-08-25T22:30:49.717Z,12.05
2017-08-25T22:33:18.973Z,11.98
2017-08-25T22:35:48.236Z,11.57
2017-08-25T22:38:17.492Z,12.02
2017-08-25T22:40:46.753Z,11.88
2017-08-25T22:43:16.009Z,11.45
2017-08-25T22:45:45.264Z,11.45
2017-08-25T22:48:14.525Z,14.10
2017-08-25T22:50:43.785Z,11.77
2017-08-25T22:53:13.054Z,11.40
2017-08-25T22:55:42.315Z,12.23
2017-08-25T22:58:11.584Z,12.43
2017-08-25T23:00:40.836Z,11.35
2017-08-25T23:03:10.106Z,12.50
2017-08-25T23:05:39.369Z,12.07
2017-08-25T23:08:08.620Z,11.77
2017-08-25T23:10:37.877Z,12.90
2017-08-25T23:13:07.169Z,12.82
2017-08-25T23:15:36.420Z,11.98
2017-08-25T23:18:05.681Z,13.20
2017-08-25T23:20:34.940Z,12.10
2017-08-25T23:23:04.201Z,11.77
2017-08-25T23:25:33.488Z,12.20
2017-08-25T23:28:02.745Z,12.32
2017-08-25T23:30:31.997Z,12.20
2017-08-25T23:33:01.264Z,11.80
2017-08-25T23:35:30.525Z,12.63
2017-08-25T23:37:59.784Z,12.63
2017-08-25T23:40:29.044Z,13.05
2017-08-25T23:42:58.301Z,13.13
2017-08-25T23:45:27.569Z,13.73
2017-08-25T23:47:56.831Z,13.23
2017-08-25T23:50:26.088Z,12.80
2017-08-25T23:52:55.345Z,13.20
2017-08-25T23:55:24.613Z,12.88
2017-08-25T23:57:53.864Z,13.62
